createdAt,value
2019-03-23T00:02:21.427Z,5.50
2019-03-23T00:04:51.681Z,5.50
2019-03-23T00:07:21.968Z,5.50
2019-03-23T00:09:52.218Z,5.40
2019-03-23T00:12:22.507Z,5.40
2019-03-23T00:14:53.047Z,5.40
2019-03-23T00:17:23.345Z,5.40
2019-03-23T00:19:53.628Z,5.50
2019-03-23T00:22:23.873Z,5.60
2019-03-23T00:24:54.132Z,5.50
2019-03-23T00:27:24.416Z,5.50
2019-03-23T00:29:54.674Z,5.40
2019-03-23T00:32:24.931Z,5.40
2019-03-23T00:34:55.259Z,5.30
2019-03-23T00:37:25.521Z,5.30
2019-03-23T00:39:55.805Z,5.30
2019-03-23T00:42:26.138Z,5.30
2019-03-23T00:44:56.436Z,5.30
2019-03-23T00:47:26.687Z,5.20
2019-03-23T00:49:57.103Z,5.30
2019-03-23T00:52:27.357Z,5.20
2019-03-23T00:54:57.650Z,5.30
2019-03-23T00:57:28.011Z,5.20
2019-03-23T00:59:58.282Z,5.20
2019-03-23T01:02:28.665Z,5.20
2019-03-23T01:04:59.007Z,5.20
2019-03-23T01:07:29.770Z,5.20
2019-03-23T01:10:00.018Z,5.30
2019-03-23T01:12:30.273Z,5.40
2019-03-23T01:15:00.564Z,5.40
2019-03-23T01:17:30.855Z,5.50
2019-03-23T01:20:01.436Z,5.50
2019-03-23T01:22:31.730Z,5.60
2019-03-23T01:25:02.115Z,5.60
2019-03-23T01:27:32.399Z,5.70
2019-03-23T01:30:02.682Z,5.80
2019-03-23T01:32:32.959Z,5.80
2019-03-23T01:35:03.212Z,5.80
2019-03-23T01:37:33.465Z,5.80
2019-03-23T01:40:04.101Z,5.80
2019-03-23T01:42:34.390Z,5.80
2019-03-23T01:45:08.540Z,5.90
2019-03-23T01:47:38.791Z,5.80
2019-03-23T01:50:10.685Z,5.80
2019-03-23T01:52:40.978Z,5.80
2019-03-23T01:55:11.256Z,5.80
2019-03-23T01:57:41.924Z,5.90
2019-03-23T02:00:13.751Z,5.90
2019-03-23T02:02:44.034Z,5.90
2019-03-23T02:05:17.739Z,5.90
2019-03-23T02:07:48.019Z,5.90
2019-03-23T02:10:18.266Z,5.90
2019-03-23T02:12:49.179Z,5.90
2019-03-23T02:15:19.799Z,5.90
2019-03-23T02:17:50.059Z,5.80
2019-03-23T02:20:20.351Z,5.90
2019-03-23T02:22:50.915Z,5.90
2019-03-23T02:25:21.188Z,5.90
2019-03-23T02:27:51.745Z,5.80
2019-03-23T02:30:22.010Z,5.80
2019-03-23T02:32:52.265Z,5.80
2019-03-23T02:35:22.576Z,5.80
2019-03-23T02:37:52.821Z,5.80
2019-03-23T02:40:23.090Z,5.80
2019-03-23T02:42:53.338Z,5.70
2019-03-23T02:45:23.627Z,5.70
2019-03-23T02:47:53.917Z,5.80
2019-03-23T02:50:24.197Z,5.70
2019-03-23T02:52:54.452Z,5.70
2019-03-23T02:55:24.740Z,5.70
2019-03-23T02:57:55.032Z,5.70
2019-03-23T03:00:27.622Z,5.70
2019-03-23T03:02:57.508Z,5.70
2019-03-23T03:05:27.792Z,5.70
2019-03-23T03:07:58.057Z,5.70
2019-03-23T03:10:39.117Z,5.70
2019-03-23T03:13:09.386Z,5.70
2019-03-23T03:15:40.116Z,5.70
2019-03-23T03:18:10.401Z,5.60
2019-03-23T03:20:40.664Z,5.60
2019-03-23T03:23:10.915Z,5.60
2019-03-23T03:25:41.431Z,5.60
2019-03-23T03:28:11.687Z,5.60
2019-03-23T03:30:41.978Z,5.50
2019-03-23T03:33:12.458Z,5.50
2019-03-23T03:35:42.782Z,5.50
2019-03-23T03:38:13.034Z,5.50
2019-03-23T03:40:43.321Z,5.40
2019-03-23T03:43:13.575Z,5.40
2019-03-23T03:45:43.859Z,5.40
2019-03-23T03:48:14.127Z,5.30
2019-03-23T03:50:44.449Z,5.40
2019-03-23T03:53:14.715Z,5.40
2019-03-23T03:55:44.967Z,5.40
2019-03-23T03:58:15.518Z,5.40
2019-03-23T04:00:45.807Z,5.40
2019-03-23T04:03:16.341Z,5.30
2019-03-23T04:05:46.602Z,5.40
2019-03-23T04:08:16.895Z,5.30
2019-03-23T04:10:47.136Z,5.30
2019-03-23T04:13:17.427Z,5.30
2019-03-23T04:15:47.673Z,5.30
2019-03-23T04:18:17.950Z,5.40
2019-03-23T04:20:48.217Z,5.40
2019-03-23T04:23:18.489Z,5.30
2019-03-23T04:25:48.750Z,5.30
2019-03-23T04:28:19.008Z,5.30
2019-03-23T04:30:49.275Z,5.30
2019-03-23T04:33:19.619Z,5.30
2019-03-23T04:35:50.165Z,5.30
2019-03-23T04:38:23.035Z,5.30
2019-03-23T04:40:52.417Z,5.20
2019-03-23T04:43:22.674Z,5.20
2019-03-23T04:45:52.965Z,5.20
2019-03-23T04:48:23.224Z,5.20
2019-03-23T04:50:53.483Z,5.20
2019-03-23T04:53:23.746Z,5.10
2019-03-23T04:55:54.015Z,5.10
2019-03-23T04:58:26.010Z,5.10
2019-03-23T05:00:56.870Z,5.10
2019-03-23T05:03:27.145Z,5.10
2019-03-23T05:05:57.455Z,5.10
2019-03-23T05:08:33.237Z,5.10
2019-03-23T05:11:00.965Z,5.10
2019-03-23T05:13:31.263Z,5.10
2019-03-23T05:16:01.515Z,5.10
2019-03-23T05:18:31.844Z,5.10
2019-03-23T05:21:02.108Z,5.10
2019-03-23T05:23:32.617Z,5.20
2019-03-23T05:26:02.908Z,5.10
2019-03-23T05:28:33.188Z,5.20
2019-03-23T05:31:03.476Z,5.20
2019-03-23T05:33:33.731Z,5.30
2019-03-23T05:36:03.998Z,5.30
2019-03-23T05:38:43.792Z,5.30
2019-03-23T05:41:06.442Z,5.20
2019-03-23T05:43:36.694Z,5.30
2019-03-23T05:46:06.966Z,5.30
2019-03-23T05:48:37.221Z,5.30
2019-03-23T05:51:07.483Z,5.40
2019-03-23T05:53:37.774Z,5.50
2019-03-23T05:56:08.062Z,5.50
2019-03-23T05:58:38.345Z,5.50
2019-03-23T06:01:08.596Z,5.50
2019-03-23T06:03:38.868Z,5.50
2019-03-23T06:06:09.122Z,5.50
2019-03-23T06:08:39.689Z,5.60
2019-03-23T06:11:09.941Z,5.70
2019-03-23T06:13:40.231Z,5.70
2019-03-23T06:16:10.517Z,5.80
2019-03-23T06:18:40.775Z,5.80
2019-03-23T06:21:11.037Z,5.80
2019-03-23T06:23:41.294Z,5.80
2019-03-23T06:26:11.558Z,5.90
2019-03-23T06:28:41.851Z,6.00
2019-03-23T06:31:12.126Z,6.10
2019-03-23T06:33:42.365Z,6.20
2019-03-23T06:36:12.879Z,6.30
2019-03-23T06:38:43.148Z,6.40
2019-03-23T06:41:13.404Z,6.50
2019-03-23T06:43:43.662Z,6.50
2019-03-23T06:46:13.929Z,6.60
2019-03-23T06:48:44.211Z,6.60
2019-03-23T06:51:14.529Z,6.70
2019-03-23T06:53:44.816Z,6.70
2019-03-23T06:56:15.095Z,6.70
2019-03-23T06:58:45.347Z,6.70
2019-03-23T07:01:15.654Z,6.80
2019-03-23T07:03:45.918Z,6.90
2019-03-23T07:06:16.202Z,6.90
2019-03-23T07:08:46.461Z,7.00
2019-03-23T07:11:16.749Z,7.10
2019-03-23T07:13:47.033Z,7.20
2019-03-23T07:16:17.318Z,7.30
2019-03-23T07:18:47.566Z,7.30
2019-03-23T07:21:17.829Z,7.10
2019-03-23T07:23:48.083Z,7.20
2019-03-23T07:26:18.376Z,7.20
2019-03-23T07:28:48.674Z,7.30
2019-03-23T07:31:18.963Z,7.40
2019-03-23T07:33:49.214Z,7.40
2019-03-23T07:36:19.478Z,7.50
2019-03-23T07:38:49.767Z,7.50
2019-03-23T07:41:20.022Z,7.50
2019-03-23T07:43:50.314Z,7.60
2019-03-23T07:46:20.821Z,7.70
2019-03-23T07:48:51.086Z,7.70
2019-03-23T07:51:21.352Z,7.80
2019-03-23T07:53:51.664Z,7.90
2019-03-23T07:56:21.928Z,8.00
2019-03-23T07:58:52.193Z,8.10
2019-03-23T08:01:22.468Z,8.20
2019-03-23T08:03:52.755Z,8.40
2019-03-23T08:06:24.414Z,8.60
2019-03-23T08:08:54.672Z,8.70
2019-03-23T08:11:24.993Z,8.70
2019-03-23T08:13:55.343Z,8.90
2019-03-23T08:16:25.613Z,8.90
2019-03-23T08:18:56.005Z,9.00
2019-03-23T08:21:26.302Z,9.10
2019-03-23T08:23:56.587Z,9.20
2019-03-23T08:26:26.867Z,9.40
2019-03-23T08:28:57.123Z,9.50
2019-03-23T08:31:27.413Z,9.50
2019-03-23T08:33:57.694Z,9.60
2019-03-23T08:36:28.253Z,9.70
2019-03-23T08:38:58.516Z,9.80
2019-03-23T08:41:28.774Z,10.00
2019-03-23T08:43:59.035Z,10.10
2019-03-23T08:46:29.292Z,10.20
2019-03-23T08:48:59.553Z,10.40
2019-03-23T08:51:29.849Z,10.50
2019-03-23T08:54:00.111Z,10.60
2019-03-23T08:56:30.369Z,10.60
2019-03-23T08:59:00.674Z,10.70
2019-03-23T09:01:30.920Z,10.90
2019-03-23T09:04:01.180Z,11.00
2019-03-23T09:06:31.442Z,11.10
2019-03-23T09:09:01.734Z,11.20
2019-03-23T09:11:31.986Z,11.40
2019-03-23T09:14:02.349Z,11.40
2019-03-23T09:16:32.618Z,11.50
2019-03-23T09:19:02.929Z,11.70
2019-03-23T09:21:33.258Z,11.90
2019-03-23T09:24:03.524Z,12.10
2019-03-23T09:26:33.783Z,12.20
2019-03-23T09:29:04.336Z,12.30
2019-03-23T09:31:34.621Z,12.40
2019-03-23T09:34:04.916Z,12.60
2019-03-23T09:36:35.165Z,12.80
2019-03-23T09:39:07.542Z,12.90
2019-03-23T09:41:37.833Z,13.00
2019-03-23T09:44:08.116Z,13.10
2019-03-23T09:46:38.369Z,13.30
2019-03-23T09:49:09.729Z,13.40
2019-03-23T09:51:43.219Z,13.50
2019-03-23T09:54:13.513Z,13.50
2019-03-23T09:56:43.778Z,13.50
2019-03-23T09:59:15.635Z,13.50
2019-03-23T10:01:45.930Z,13.50
2019-03-23T10:04:16.189Z,13.60
2019-03-23T10:06:46.449Z,13.70
2019-03-23T10:09:16.960Z,13.80
2019-03-23T10:11:47.254Z,13.90
2019-03-23T10:14:17.531Z,14.00
2019-03-23T10:16:47.793Z,14.20
2019-03-23T10:19:18.064Z,14.20
2019-03-23T10:21:48.638Z,14.30
2019-03-23T10:24:19.607Z,14.40
2019-03-23T10:26:52.135Z,14.40
2019-03-23T10:29:21.903Z,14.50
2019-03-23T10:31:52.184Z,14.50
2019-03-23T10:34:22.471Z,14.60
2019-03-23T10:36:52.757Z,14.60
2019-03-23T10:39:23.022Z,14.70
2019-03-23T10:41:53.582Z,14.70
2019-03-23T10:44:24.354Z,14.80
2019-03-23T10:46:54.900Z,14.90
2019-03-23T10:49:25.195Z,14.90
2019-03-23T10:51:55.448Z,14.90
2019-03-23T10:54:26.009Z,15.00
2019-03-23T10:56:56.265Z,15.20
2019-03-23T10:59:28.046Z,15.20
2019-03-23T11:01:58.415Z,15.20
2019-03-23T11:04:28.682Z,15.20
2019-03-23T11:06:58.975Z,15.30
2019-03-23T11:09:29.626Z,15.40
2019-03-23T11:11:59.928Z,15.50
2019-03-23T11:14:30.180Z,15.70
2019-03-23T11:17:01.390Z,15.80
2019-03-23T11:19:31.674Z,15.70
2019-03-23T11:22:01.961Z,15.70
2019-03-23T11:24:32.221Z,15.70
2019-03-23T11:27:02.515Z,15.70
2019-03-23T11:29:32.802Z,15.70
2019-03-23T11:32:03.093Z,15.70
2019-03-23T11:34:33.379Z,15.90
2019-03-23T11:37:03.668Z,16.00
2019-03-23T11:39:33.969Z,16.00
2019-03-23T11:42:04.257Z,16.00
2019-03-23T11:44:34.547Z,16.00
2019-03-23T11:47:05.273Z,15.90
2019-03-23T11:49:35.524Z,15.70
2019-03-23T11:52:06.294Z,15.40
2019-03-23T11:54:36.606Z,15.30
2019-03-23T11:57:06.863Z,15.20
2019-03-23T11:59:37.130Z,15.20
2019-03-23T12:02:07.653Z,15.30
2019-03-23T12:04:37.959Z,15.40
2019-03-23T12:07:08.228Z,15.20
2019-03-23T12:09:38.499Z,15.00
2019-03-23T12:12:08.766Z,14.70
2019-03-23T12:14:39.031Z,14.60
2019-03-23T12:17:09.356Z,14.50
2019-03-23T12:19:39.779Z,14.30
2019-03-23T12:22:10.072Z,14.20
2019-03-23T12:24:40.330Z,14.00
2019-03-23T12:27:10.586Z,14.00
2019-03-23T12:29:40.881Z,14.00
2019-03-23T12:32:11.161Z,14.00
2019-03-23T12:34:41.420Z,14.10
2019-03-23T12:37:11.685Z,14.40
2019-03-23T12:39:41.984Z,14.30
2019-03-23T12:42:12.305Z,13.80
2019-03-23T12:44:42.569Z,13.70
2019-03-23T12:47:12.827Z,13.90
2019-03-23T12:49:43.120Z,14.40
2019-03-23T12:52:13.373Z,14.60
2019-03-23T12:54:43.635Z,14.40
2019-03-23T12:57:13.926Z,14.30
2019-03-23T12:59:44.994Z,14.10
2019-03-23T13:02:15.274Z,14.40
2019-03-23T13:04:45.653Z,14.60
2019-03-23T13:07:15.935Z,14.70
2019-03-23T13:09:46.796Z,14.30
2019-03-23T13:12:17.083Z,13.80
2019-03-23T13:14:47.331Z,13.70
2019-03-23T13:17:17.624Z,13.70
2019-03-23T13:19:49.631Z,13.90
2019-03-23T13:22:19.887Z,14.10
2019-03-23T13:24:50.462Z,14.10
2019-03-23T13:27:20.759Z,14.10
2019-03-23T13:29:51.039Z,14.20
2019-03-23T13:32:21.502Z,14.20
2019-03-23T13:34:52.029Z,14.20
2019-03-23T13:37:22.329Z,14.40
2019-03-23T13:39:52.591Z,14.50
2019-03-23T13:42:24.027Z,14.30
2019-03-23T13:44:54.343Z,13.60
2019-03-23T13:47:24.596Z,13.50
2019-03-23T13:49:54.927Z,13.50
2019-03-23T13:52:25.184Z,13.30
2019-03-23T13:54:55.470Z,13.20
2019-03-23T13:57:25.732Z,13.20
2019-03-23T13:59:55.995Z,13.30
2019-03-23T14:02:27.058Z,13.20
2019-03-23T14:04:57.585Z,13.20
2019-03-23T14:07:27.917Z,13.50
2019-03-23T14:09:58.210Z,13.70
2019-03-23T14:12:28.502Z,13.50
2019-03-23T14:15:00.030Z,13.70
2019-03-23T14:17:30.399Z,13.80
2019-03-23T14:20:00.669Z,14.30
2019-03-23T14:22:31.025Z,14.90
2019-03-23T14:25:02.264Z,15.10
2019-03-23T14:27:32.526Z,15.20
2019-03-23T14:30:02.823Z,15.30
2019-03-23T14:32:33.077Z,15.10
2019-03-23T14:35:05.277Z,15.10
2019-03-23T14:37:35.573Z,15.50
2019-03-23T14:40:06.495Z,15.50
2019-03-23T14:42:37.055Z,15.50
2019-03-23T14:45:07.390Z,15.50
2019-03-23T14:47:37.656Z,15.20
2019-03-23T14:50:08.318Z,15.10
2019-03-23T14:52:38.579Z,15.50
2019-03-23T14:55:08.845Z,15.80
2019-03-23T14:57:40.510Z,16.10
2019-03-23T15:00:11.176Z,16.10
2019-03-23T15:02:42.605Z,15.80
2019-03-23T15:05:12.908Z,15.30
2019-03-23T15:07:43.157Z,15.00
2019-03-23T15:10:13.414Z,15.30
2019-03-23T15:12:43.710Z,15.20
2019-03-23T15:15:14.011Z,15.40
2019-03-23T15:17:48.746Z,15.10
2019-03-23T15:20:16.324Z,14.80
2019-03-23T15:22:46.588Z,14.70
2019-03-23T15:25:16.875Z,14.80
2019-03-23T15:27:48.704Z,15.00
2019-03-23T15:30:19.156Z,15.50
2019-03-23T15:32:49.418Z,15.60
2019-03-23T15:35:19.858Z,15.50
2019-03-23T15:37:50.180Z,15.70
2019-03-23T15:40:20.467Z,15.90
2019-03-23T15:42:51.190Z,15.50
2019-03-23T15:45:21.480Z,15.40
2019-03-23T15:47:51.755Z,15.20
2019-03-23T15:50:22.020Z,14.90
2019-03-23T15:52:52.315Z,14.80
2019-03-23T15:55:22.599Z,15.00
2019-03-23T15:57:52.853Z,15.00
2019-03-23T16:00:23.444Z,14.90
2019-03-23T16:02:53.741Z,14.40
2019-03-23T16:05:24.287Z,14.00
2019-03-23T16:07:54.553Z,13.80
2019-03-23T16:10:24.811Z,13.50
2019-03-23T16:12:55.083Z,13.30
2019-03-23T16:15:25.345Z,13.20
2019-03-23T16:17:55.916Z,13.00
2019-03-23T16:20:26.171Z,12.90
2019-03-23T16:22:56.682Z,12.80
2019-03-23T16:25:27.250Z,12.70
2019-03-23T16:27:57.948Z,12.60
2019-03-23T16:30:31.589Z,12.50
2019-03-23T16:33:02.138Z,12.50
2019-03-23T16:35:32.425Z,12.40
2019-03-23T16:38:02.691Z,12.40
2019-03-23T16:40:32.984Z,12.30
2019-03-23T16:43:03.280Z,12.30
2019-03-23T16:45:33.568Z,12.30
2019-03-23T16:48:03.844Z,12.30
2019-03-23T16:50:34.127Z,12.20
2019-03-23T16:53:04.413Z,12.20
2019-03-23T16:55:34.710Z,12.10
2019-03-23T16:58:05.007Z,12.10
2019-03-23T17:00:37.014Z,12.00
2019-03-23T17:03:10.903Z,12.00
2019-03-23T17:05:41.189Z,11.90
2019-03-23T17:08:11.442Z,11.90
2019-03-23T17:10:41.735Z,11.90
2019-03-23T17:13:11.984Z,11.90
2019-03-23T17:15:42.246Z,11.90
2019-03-23T17:18:12.537Z,11.80
2019-03-23T17:20:42.791Z,11.80
2019-03-23T17:23:13.050Z,11.80
2019-03-23T17:25:43.313Z,11.80
2019-03-23T17:28:13.601Z,11.70
2019-03-23T17:30:43.865Z,11.70
2019-03-23T17:33:14.130Z,11.60
2019-03-23T17:35:44.390Z,11.60
2019-03-23T17:38:15.248Z,11.60
2019-03-23T17:40:45.717Z,11.50
2019-03-23T17:43:15.986Z,11.50
2019-03-23T17:45:46.275Z,11.50
2019-03-23T17:48:16.541Z,11.50
2019-03-23T17:50:46.797Z,11.40
2019-03-23T17:53:17.094Z,11.40
2019-03-23T17:55:47.346Z,11.40
2019-03-23T17:58:17.636Z,11.40
2019-03-23T18:00:47.904Z,11.30
2019-03-23T18:03:18.163Z,11.30
2019-03-23T18:05:48.453Z,11.30
2019-03-23T18:08:18.728Z,11.30
2019-03-23T18:10:49.041Z,11.20
2019-03-23T18:13:19.349Z,11.20
2019-03-23T18:15:49.606Z,11.20
2019-03-23T18:18:19.899Z,11.10
2019-03-23T18:20:50.156Z,11.10
2019-03-23T18:23:20.422Z,11.10
2019-03-23T18:25:50.705Z,11.10
2019-03-23T18:28:20.970Z,11.10
2019-03-23T18:30:51.268Z,11.10
2019-03-23T18:33:21.557Z,11.10
2019-03-23T18:35:51.843Z,11.10
2019-03-23T18:38:22.105Z,11.00
2019-03-23T18:40:52.398Z,11.00
2019-03-23T18:43:27.445Z,10.90
2019-03-23T18:45:54.700Z,10.90
2019-03-23T18:48:24.995Z,10.80
2019-03-23T18:50:55.826Z,10.80
2019-03-23T18:53:26.095Z,10.80
2019-03-23T18:55:56.363Z,10.80
2019-03-23T18:58:27.568Z,10.90
2019-03-23T19:00:57.840Z,10.90
2019-03-23T19:03:28.143Z,10.90
2019-03-23T19:05:58.406Z,10.90
2019-03-23T19:08:28.727Z,10.90
2019-03-23T19:10:59.015Z,10.80
2019-03-23T19:13:37.562Z,10.80
2019-03-23T19:16:01.276Z,10.80
2019-03-23T19:18:32.371Z,10.80
2019-03-23T19:21:02.669Z,10.70
2019-03-23T19:23:34.533Z,10.70
2019-03-23T19:26:05.002Z,10.70
2019-03-23T19:28:35.570Z,10.70
2019-03-23T19:31:05.827Z,10.70
2019-03-23T19:33:36.139Z,10.60
2019-03-23T19:36:07.473Z,10.60
2019-03-23T19:38:37.747Z,10.60
2019-03-23T19:41:08.044Z,10.60
2019-03-23T19:43:48.061Z,10.60
2019-03-23T19:46:10.530Z,10.70
2019-03-23T19:48:40.813Z,10.70
2019-03-23T19:51:12.767Z,10.70
2019-03-23T19:53:43.089Z,10.70
2019-03-23T19:56:13.383Z,10.70
2019-03-23T19:58:43.673Z,10.60
2019-03-23T20:01:13.991Z,10.50
2019-03-23T20:03:44.303Z,10.50
2019-03-23T20:06:14.591Z,10.40
2019-03-23T20:08:44.956Z,10.30
2019-03-23T20:11:15.284Z,10.20
2019-03-23T20:13:45.641Z,10.10
2019-03-23T20:16:16.001Z,10.00
2019-03-23T20:18:46.267Z,9.90
2019-03-23T20:21:16.571Z,9.90
2019-03-23T20:23:46.820Z,9.90
2019-03-23T20:26:17.083Z,10.00
2019-03-23T20:28:47.387Z,9.90
2019-03-23T20:31:17.881Z,9.90
2019-03-23T20:33:48.151Z,9.90
2019-03-23T20:36:18.461Z,9.90
2019-03-23T20:38:48.711Z,9.70
2019-03-23T20:41:19.005Z,9.60
2019-03-23T20:43:49.288Z,9.50
2019-03-23T20:46:19.559Z,9.30
2019-03-23T20:48:49.847Z,9.00
2019-03-23T20:51:20.138Z,8.90
2019-03-23T20:53:50.475Z,8.80
2019-03-23T20:56:20.728Z,8.80
2019-03-23T20:58:51.032Z,8.80
2019-03-23T21:01:21.381Z,8.70
2019-03-23T21:03:51.643Z,8.50
2019-03-23T21:06:21.900Z,8.40
2019-03-23T21:08:52.227Z,8.30
2019-03-23T21:11:22.497Z,8.10
2019-03-23T21:13:52.782Z,8.00
2019-03-23T21:16:23.739Z,7.80
2019-03-23T21:18:54.000Z,7.70
2019-03-23T21:21:24.254Z,7.50
2019-03-23T21:23:54.563Z,7.40
2019-03-23T21:26:24.831Z,7.20
2019-03-23T21:28:55.099Z,7.10
2019-03-23T21:31:25.658Z,7.00
2019-03-23T21:33:55.902Z,6.90
2019-03-23T21:36:26.196Z,6.80
2019-03-23T21:38:56.441Z,6.70
2019-03-23T21:41:26.722Z,6.60
2019-03-23T21:43:56.970Z,6.60
2019-03-23T21:46:27.259Z,6.50
2019-03-23T21:48:57.532Z,6.40
2019-03-23T21:51:27.787Z,6.40
2019-03-23T21:53:58.043Z,6.40
2019-03-23T21:56:28.340Z,6.40
2019-03-23T21:58:58.592Z,6.40
2019-03-23T22:01:28.880Z,6.60
2019-03-23T22:03:59.131Z,6.80
2019-03-23T22:06:29.434Z,7.00
2019-03-23T22:08:59.672Z,7.10
2019-03-23T22:11:29.921Z,7.20
2019-03-23T22:14:00.180Z,7.30
2019-03-23T22:16:30.427Z,7.30
2019-03-23T22:19:00.989Z,7.30
2019-03-23T22:21:31.232Z,7.30
2019-03-23T22:24:01.536Z,7.40
2019-03-23T22:26:31.827Z,7.40
2019-03-23T22:29:02.455Z,7.40
2019-03-23T22:31:32.746Z,7.40
2019-03-23T22:34:03.065Z,7.50
2019-03-23T22:36:33.318Z,7.50
2019-03-23T22:39:05.079Z,7.60
2019-03-23T22:41:35.353Z,7.70
2019-03-23T22:44:05.653Z,7.70
2019-03-23T22:46:35.933Z,7.70
2019-03-23T22:49:06.217Z,7.70
2019-03-23T22:51:36.486Z,7.70
2019-03-23T22:54:06.765Z,7.80
2019-03-23T22:56:37.044Z,7.80
2019-03-23T22:59:07.299Z,7.80
2019-03-23T23:01:37.733Z,7.90
2019-03-23T23:04:08.087Z,7.90
2019-03-23T23:06:38.633Z,8.00
2019-03-23T23:09:10.128Z,8.00
2019-03-23T23:11:41.477Z,7.90
2019-03-23T23:14:11.743Z,7.70
2019-03-23T23:16:42.027Z,7.50
2019-03-23T23:19:12.543Z,7.30
2019-03-23T23:21:42.834Z,7.20
2019-03-23T23:24:13.078Z,7.10
2019-03-23T23:26:43.333Z,7.10
2019-03-23T23:29:13.581Z,6.90
2019-03-23T23:31:43.839Z,6.80
2019-03-23T23:34:14.086Z,6.70
2019-03-23T23:36:44.372Z,6.60
2019-03-23T23:39:14.611Z,6.40
2019-03-23T23:41:44.899Z,6.40
2019-03-23T23:44:15.172Z,6.40
2019-03-23T23:46:45.412Z,6.50
2019-03-23T23:49:15.692Z,6.50
2019-03-23T23:51:50.055Z,6.50
2019-03-23T23:54:17.898Z,6.50
2019-03-23T23:56:48.193Z,6.60
2019-03-23T23:59:18.482Z,6.60
